Time;durP1;ratioP1;P1;durP2;ratioP2;P2;SDS_P1;SDS_P2;PMS_P1;PMS_P2;Temp;Humidity;BMP_temperature;BMP_pressure;BME280_temperature;BME280_humidity;BME280_pressure;Samples;Min_cycle;Max_cycle;Signal;HPM_P1;HPM_P2
2021/11/24 00:02:06;;;;;;;54.47;27.95;;;-2.00;96.00;;;;;;5034455;28;20041;-73
2021/11/24 00:04:31;;;;;;;48.10;26.52;;;-2.00;97.10;;;;;;5034275;28;20104;-73
2021/11/24 00:06:57;;;;;;;51.25;27.23;;;-2.00;97.00;;;;;;5033718;28;20057;-74
2021/11/24 00:09:23;;;;;;;55.20;27.90;;;-2.00;96.70;;;;;;5031660;28;20319;-73
2021/11/24 00:11:48;;;;;;;53.00;29.48;;;-2.00;96.90;;;;;;5035008;28;20037;-74
2021/11/24 00:14:14;;;;;;;58.67;31.23;;;-2.10;96.90;;;;;;5034480;28;20033;-72
2021/11/24 00:16:39;;;;;;;52.42;27.08;;;-2.10;97.20;;;;;;5035132;28;20049;-73
2021/11/24 00:19:05;;;;;;;59.20;30.83;;;-2.10;96.90;;;;;;5034179;28;20097;-73
2021/11/24 00:21:31;;;;;;;47.22;25.73;;;-2.20;97.40;;;;;;5035846;28;20444;-72
2021/11/24 00:23:59;;;;;;;57.65;28.10;;;-2.30;96.60;;;;;;5033624;28;20034;-73
2021/11/24 00:26:25;;;;;;;48.50;26.75;;;-2.40;97.00;;;;;;5034586;28;20040;-73
2021/11/24 00:28:50;;;;;;;52.20;27.25;;;-2.40;97.20;;;;;;5033794;28;20037;-74
2021/11/24 00:31:16;;;;;;;49.80;25.67;;;-2.50;96.90;;;;;;5033280;28;20311;-73
2021/11/24 00:33:42;;;;;;;56.55;28.08;;;-2.60;97.30;;;;;;5034293;28;20410;-73
2021/11/24 00:36:08;;;;;;;55.45;29.77;;;-2.70;97.60;;;;;;5034590;28;20029;-73
2021/11/24 00:38:33;;;;;;;59.28;29.55;;;-2.90;97.30;;;;;;5031524;28;20045;-73
2021/11/24 00:40:59;;;;;;;43.97;24.45;;;-3.00;97.40;;;;;;5034542;28;20032;-74
2021/11/24 00:43:26;;;;;;;53.85;28.80;;;-3.10;97.00;;;;;;5034310;28;20029;-73
2021/11/24 00:45:53;;;;;;;42.58;24.67;;;-3.20;96.90;;;;;;5032221;28;20033;-73
2021/11/24 00:48:19;;;;;;;55.47;29.13;;;-3.20;96.90;;;;;;5032529;28;20033;-73
2021/11/24 00:50:45;;;;;;;43.45;24.85;;;-3.20;96.50;;;;;;5034054;28;20049;-73
2021/11/24 00:53:10;;;;;;;48.05;25.85;;;-3.10;95.90;;;;;;5033287;28;20059;-72
2021/11/24 00:55:36;;;;;;;60.13;28.50;;;-3.10;96.80;;;;;;5034989;28;20029;-73
2021/11/24 00:58:02;;;;;;;40.60;23.45;;;-3.10;96.80;;;;;;5033975;28;20025;-73
2021/11/24 01:00:28;;;;;;;41.92;23.08;;;-3.10;96.00;;;;;;5031421;28;20029;-73
2021/11/24 01:02:54;;;;;;;64.60;30.75;;;-3.10;96.40;;;;;;5030825;28;20036;-73
2021/11/24 01:05:20;;;;;;;52.58;29.75;;;-3.00;95.50;;;;;;5034680;28;20033;-73
2021/11/24 01:07:46;;;;;;;60.67;31.85;;;-3.00;96.50;;;;;;5033213;28;20346;-72
2021/11/24 01:10:13;;;;;;;62.75;32.33;;;-3.00;96.30;;;;;;5032861;28;20048;-73
2021/11/24 01:12:40;;;;;;;55.67;29.83;;;-3.00;95.80;;;;;;5032984;28;20103;-72
2021/11/24 01:15:07;;;;;;;52.55;27.65;;;-3.00;95.90;;;;;;5034222;28;20030;-72
2021/11/24 01:17:32;;;;;;;57.05;29.40;;;-2.90;94.90;;;;;;5034090;28;20037;-72
2021/11/24 01:19:58;;;;;;;55.90;27.65;;;-2.80;95.00;;;;;;5034102;28;20036;-72
2021/11/24 01:22:24;;;;;;;49.17;25.55;;;-2.90;96.00;;;;;;5037781;28;20120;-72
2021/11/24 01:24:49;;;;;;;44.60;26.23;;;-3.00;96.00;;;;;;5037023;28;20072;-73
2021/11/24 01:27:15;;;;;;;47.75;26.42;;;-3.00;95.20;;;;;;5037987;28;20053;-74
2021/11/24 01:29:41;;;;;;;51.70;26.88;;;-2.80;94.40;;;;;;5033660;28;20470;-73
2021/11/24 01:32:06;;;;;;;57.58;30.00;;;-2.70;95.20;;;;;;5031154;28;20128;-75
2021/11/24 01:34:35;;;;;;;59.97;30.30;;;-2.60;91.80;;;;;;5037485;28;20434;-74
2021/11/24 01:37:03;;;;;;;53.08;29.02;;;-2.10;93.50;;;;;;5036567;28;20414;-74
2021/11/24 01:39:29;;;;;;;58.25;29.42;;;-2.10;95.00;;;;;;5035428;28;20031;-74
2021/11/24 01:41:55;;;;;;;60.55;31.50;;;-2.10;95.70;;;;;;5036201;28;20025;-73
2021/11/24 01:44:26;;;;;;;47.10;26.67;;;-2.10;95.70;;;;;;5034743;28;20029;-73
2021/11/24 01:46:53;;;;;;;49.60;26.20;;;-2.10;95.60;;;;;;5036781;28;20045;-73
2021/11/24 01:49:20;;;;;;;42.78;24.80;;;-2.20;96.40;;;;;;5035062;28;20029;-73
2021/11/24 01:51:46;;;;;;;47.47;26.50;;;-2.20;95.50;;;;;;5036847;28;20319;-73
2021/11/24 01:54:16;;;;;;;48.30;26.85;;;-2.20;95.40;;;;;;5036704;28;20029;-74
2021/11/24 01:56:43;;;;;;;40.15;24.17;;;-2.10;95.50;;;;;;5037125;28;20036;-74
2021/11/24 01:59:10;;;;;;;54.65;27.88;;;-2.20;96.40;;;;;;5037134;28;20033;-72
2021/11/24 02:01:37;;;;;;;59.53;30.50;;;-2.10;95.90;;;;;;5035172;28;20029;-72
2021/11/24 02:04:03;;;;;;;46.50;25.88;;;-2.00;96.20;;;;;;5037481;28;20021;-72
2021/11/24 02:06:29;;;;;;;46.58;26.75;;;-2.00;95.90;;;;;;5035856;28;20561;-72
2021/11/24 02:08:55;;;;;;;50.92;28.33;;;-2.00;96.20;;;;;;5035520;28;20520;-72
2021/11/24 02:11:21;;;;;;;54.58;28.40;;;-1.70;95.10;;;;;;5036858;28;20045;-73
2021/11/24 02:13:46;;;;;;;51.15;29.10;;;-1.60;96.10;;;;;;5033403;28;20330;-73
2021/11/24 02:16:12;;;;;;;52.08;28.55;;;-1.60;97.30;;;;;;5037403;28;20022;-73
2021/11/24 02:18:37;;;;;;;49.33;28.42;;;-1.70;97.20;;;;;;5036464;28;20076;-73
2021/11/24 02:21:03;;;;;;;48.33;27.83;;;-1.60;96.80;;;;;;5041157;28;20032;-73
2021/11/24 02:23:29;;;;;;;49.03;28.33;;;-1.50;97.70;;;;;;5035203;28;20044;-72
2021/11/24 02:25:54;;;;;;;48.95;27.33;;;-1.60;97.80;;;;;;5036394;28;20434;-73
2021/11/24 02:28:21;;;;;;;48.25;27.00;;;-1.60;97.90;;;;;;5036869;28;20022;-73
2021/11/24 02:30:48;;;;;;;48.72;27.48;;;-1.60;98.00;;;;;;5036145;28;20025;-73
2021/11/24 02:33:14;;;;;;;48.15;27.70;;;-1.60;97.80;;;;;;5034677;28;20025;-72
2021/11/24 02:35:44;;;;;;;50.58;27.80;;;-1.60;97.70;;;;;;5035738;28;20030;-73
2021/11/24 02:38:13;;;;;;;50.25;29.20;;;-1.30;97.20;;;;;;5034896;28;20029;-73
2021/11/24 02:40:41;;;;;;;49.83;28.60;;;-1.30;98.00;;;;;;5036096;28;20129;-73
2021/11/24 02:43:07;;;;;;;43.03;25.88;;;-1.30;98.00;;;;;;5035154;28;20063;-72
2021/11/24 02:45:33;;;;;;;51.35;28.40;;;-1.30;98.00;;;;;;5035381;28;20456;-73
2021/11/24 02:47:58;;;;;;;47.00;25.67;;;-1.40;98.00;;;;;;5035728;28;20528;-73
2021/11/24 02:50:24;;;;;;;49.58;27.40;;;-1.40;98.00;;;;;;5036176;28;20033;-72
2021/11/24 02:52:50;;;;;;;48.42;27.23;;;-1.60;98.00;;;;;;5035845;28;20079;-72
2021/11/24 02:55:16;;;;;;;47.63;27.98;;;-1.70;98.00;;;;;;5027893;28;20022;-72
2021/11/24 02:57:45;;;;;;;54.47;28.52;;;-1.90;98.00;;;;;;5031988;28;20024;-72
2021/11/24 03:00:32;;;;;;;55.50;29.58;;;-2.10;98.00;;;;;;5035246;28;20111;-72
2021/11/24 03:02:57;;;;;;;56.88;30.48;;;-2.20;98.00;;;;;;5033374;28;20022;-73
2021/11/24 03:05:26;;;;;;;47.50;27.73;;;-2.20;98.00;;;;;;5035374;28;20371;-73
2021/11/24 03:07:52;;;;;;;55.70;31.67;;;-2.30;98.00;;;;;;5036199;28;20338;-73
2021/11/24 03:10:18;;;;;;;51.28;28.77;;;-2.40;98.00;;;;;;5034192;28;20064;-72
2021/11/24 03:12:44;;;;;;;55.70;31.20;;;-2.50;98.00;;;;;;5035152;28;20034;-73
2021/11/24 03:15:13;;;;;;;63.63;32.85;;;-2.50;98.00;;;;;;5035761;28;20095;-75
2021/11/24 03:17:38;;;;;;;53.20;28.80;;;-2.60;98.00;;;;;;5033848;28;20017;-75
2021/11/24 03:20:06;;;;;;;61.70;31.92;;;-2.70;98.00;;;;;;5035609;28;20029;-72
2021/11/24 03:22:32;;;;;;;54.67;30.35;;;-2.70;97.60;;;;;;5035788;28;20041;-73
2021/11/24 03:24:59;;;;;;;46.47;26.33;;;-2.70;97.50;;;;;;5029292;28;20030;-73
2021/11/24 03:27:31;;;;;;;57.83;31.00;;;-2.70;97.50;;;;;;5035350;28;20095;-73
2021/11/24 03:29:58;;;;;;;48.03;28.50;;;-2.60;97.50;;;;;;5034230;28;20327;-74
2021/11/24 03:32:24;;;;;;;60.75;32.42;;;-2.70;97.20;;;;;;5034837;28;20045;-73
2021/11/24 03:34:53;;;;;;;50.35;28.60;;;-2.70;97.60;;;;;;5033964;28;20082;-73
2021/11/24 03:37:19;;;;;;;48.63;28.33;;;-2.80;97.30;;;;;;5034297;28;20022;-72
2021/11/24 03:39:47;;;;;;;47.75;28.75;;;-2.80;97.20;;;;;;5033988;28;20439;-74
2021/11/24 03:42:13;;;;;;;55.67;31.88;;;-2.80;97.30;;;;;;5034773;28;20022;-73
2021/11/24 03:44:39;;;;;;;54.67;30.55;;;-2.90;97.70;;;;;;5033151;28;20112;-73
2021/11/24 03:47:05;;;;;;;59.88;31.48;;;-3.00;97.60;;;;;;5036120;28;20439;-73
2021/11/24 03:49:30;;;;;;;56.55;31.40;;;-3.00;97.20;;;;;;5034365;28;20406;-73
2021/11/24 03:51:56;;;;;;;52.38;29.65;;;-3.00;97.10;;;;;;5035274;28;20025;-73
2021/11/24 03:54:22;;;;;;;61.42;32.25;;;-2.90;96.10;;;;;;5029545;28;20117;-73
2021/11/24 03:56:47;;;;;;;48.60;27.77;;;-2.80;96.70;;;;;;5025073;28;20017;-73
2021/11/24 03:59:13;;;;;;;58.15;31.98;;;-2.80;96.60;;;;;;5034581;28;20033;-72
2021/11/24 04:01:39;;;;;;;61.67;32.33;;;-2.80;96.80;;;;;;5034513;28;20041;-72
2021/11/24 04:04:05;;;;;;;71.38;35.75;;;-2.90;96.80;;;;;;5033943;28;20407;-73
2021/11/24 04:06:32;;;;;;;101.43;47.70;;;-2.90;96.80;;;;;;5033670;28;20087;-73
2021/11/24 04:08:59;;;;;;;89.82;44.20;;;-2.90;96.50;;;;;;5033723;28;20055;-72
2021/11/24 04:11:25;;;;;;;76.65;40.58;;;-2.90;96.40;;;;;;5033597;28;20037;-72
2021/11/24 04:13:52;;;;;;;83.90;41.33;;;-2.90;95.90;;;;;;5034405;28;20115;-71
2021/11/24 04:16:18;;;;;;;68.40;34.65;;;-2.80;95.90;;;;;;5032045;28;20037;-73
2021/11/24 04:18:43;;;;;;;68.72;35.67;;;-2.60;95.30;;;;;;5033486;28;20330;-73
2021/11/24 04:21:09;;;;;;;63.60;34.35;;;-2.40;94.70;;;;;;5034552;28;20075;-72
2021/11/24 04:23:35;;;;;;;70.13;35.85;;;-2.30;95.80;;;;;;5032480;28;20068;-74
2021/11/24 04:26:01;;;;;;;75.75;38.95;;;-2.30;96.00;;;;;;5034321;28;20057;-73
2021/11/24 04:28:26;;;;;;;69.80;37.22;;;-2.30;96.00;;;;;;5032510;28;20025;-73
2021/11/24 04:30:52;;;;;;;57.38;32.33;;;-2.30;96.20;;;;;;5034910;28;20101;-73
2021/11/24 04:33:18;;;;;;;53.03;31.02;;;-2.40;96.00;;;;;;5035423;28;20029;-73
2021/11/24 04:35:45;;;;;;;63.05;33.75;;;-2.30;95.70;;;;;;5031730;28;20025;-71
2021/11/24 04:38:11;;;;;;;50.50;29.42;;;-2.30;96.20;;;;;;5033012;28;20048;-73
2021/11/24 04:40:37;;;;;;;65.40;35.67;;;-2.30;96.20;;;;;;5033612;28;20049;-73
2021/11/24 04:43:05;;;;;;;58.65;31.48;;;-2.30;96.20;;;;;;5034067;28;20057;-74
2021/11/24 04:45:31;;;;;;;47.92;28.85;;;-2.30;96.80;;;;;;5033572;28;20056;-73
2021/11/24 04:47:57;;;;;;;47.67;28.50;;;-2.40;96.70;;;;;;5033999;28;20065;-73
2021/11/24 04:50:22;;;;;;;63.45;33.13;;;-2.40;97.00;;;;;;5034026;28;20030;-72
2021/11/24 04:52:48;;;;;;;54.30;30.98;;;-2.40;96.90;;;;;;5033448;28;20088;-73
2021/11/24 04:55:15;;;;;;;51.88;29.63;;;-2.50;96.90;;;;;;5035016;28;20104;-73
2021/11/24 04:57:41;;;;;;;54.90;30.85;;;-2.60;97.50;;;;;;5036926;28;20056;-73
2021/11/24 05:00:14;;;;;;;51.10;29.35;;;-2.60;97.30;;;;;;5036422;28;20112;-73
2021/11/24 05:02:39;;;;;;;51.38;29.75;;;-2.80;97.60;;;;;;5037878;28;20104;-73
2021/11/24 05:05:05;;;;;;;52.45;31.35;;;-2.90;97.10;;;;;;5037036;28;20116;-74
2021/11/24 05:07:34;;;;;;;47.78;27.08;;;-2.90;96.90;;;;;;5040184;28;20484;-73
2021/11/24 05:10:00;;;;;;;82.50;46.42;;;-2.90;96.60;;;;;;5036277;28;20049;-75
2021/11/24 05:12:25;;;;;;;64.72;33.85;;;-3.00;96.90;;;;;;5037380;28;20036;-72
2021/11/24 05:14:52;;;;;;;62.38;36.53;;;-3.00;96.40;;;;;;5037621;28;20017;-74
2021/11/24 05:17:21;;;;;;;53.28;32.25;;;-3.00;96.70;;;;;;5037966;28;20067;-73
2021/11/24 05:19:51;;;;;;;55.60;31.83;;;-3.00;96.50;;;;;;5038108;28;20013;-72
2021/11/24 05:22:17;;;;;;;81.00;38.97;;;-3.10;96.40;;;;;;5036608;28;20037;-73
2021/11/24 05:24:43;;;;;;;62.90;34.65;;;-3.10;96.30;;;;;;5036539;28;20028;-72
2021/11/24 05:27:09;;;;;;;59.95;33.05;;;-3.10;96.20;;;;;;5038427;28;20366;-72
2021/11/24 05:29:35;;;;;;;47.58;28.75;;;-3.20;96.50;;;;;;5037834;28;20030;-73
2021/11/24 05:32:00;;;;;;;50.20;28.92;;;-3.20;96.20;;;;;;5037365;28;20025;-73
2021/11/24 05:34:26;;;;;;;49.35;30.20;;;-3.10;95.30;;;;;;5036620;28;20049;-73
2021/11/24 05:36:52;;;;;;;66.07;36.47;;;-3.10;95.30;;;;;;5036910;28;20049;-73
2021/11/24 05:39:18;;;;;;;60.40;33.72;;;-3.00;94.80;;;;;;5036038;28;20112;-72
2021/11/24 05:41:46;;;;;;;71.10;37.00;;;-2.90;95.50;;;;;;5038013;28;20029;-75
2021/11/24 05:44:35;;;;;;;52.08;31.30;;;-2.80;95.30;;;;;;5033559;28;20028;-72
2021/11/24 05:47:08;;;;;;;53.53;32.00;;;-2.80;95.20;;;;;;5038164;28;20021;-73
2021/11/24 05:49:36;;;;;;;92.38;45.10;;;-2.70;94.70;;;;;;5036323;28;20311;-74
2021/11/24 05:52:02;;;;;;;98.68;50.08;;;-2.70;95.70;;;;;;5032573;28;20034;-73
2021/11/24 05:54:28;;;;;;;82.50;42.55;;;-2.70;95.50;;;;;;5025912;28;20104;-74
2021/11/24 05:56:53;;;;;;;75.72;40.60;;;-2.70;95.80;;;;;;5029184;28;20061;-73
2021/11/24 05:59:20;;;;;;;62.92;36.00;;;-2.80;96.20;;;;;;5037230;28;20025;-73
2021/11/24 06:01:46;;;;;;;56.85;31.88;;;-2.80;96.00;;;;;;5036600;28;20033;-73
2021/11/24 06:04:11;;;;;;;54.17;32.28;;;-3.00;96.30;;;;;;5037132;28;20029;-71
2021/11/24 06:06:38;;;;;;;52.28;33.17;;;-3.00;95.90;;;;;;5036083;28;20029;-72
2021/11/24 06:09:06;;;;;;;48.63;29.45;;;-3.10;96.20;;;;;;5032984;28;20048;-72
2021/11/24 06:11:33;;;;;;;59.55;33.78;;;-3.20;95.50;;;;;;5037219;28;20033;-73
2021/11/24 06:13:59;;;;;;;52.60;31.23;;;-3.20;96.20;;;;;;5035093;28;20025;-73
2021/11/24 06:16:24;;;;;;;54.63;31.02;;;-3.20;96.10;;;;;;5034855;28;20025;-72
2021/11/24 06:18:50;;;;;;;50.40;30.05;;;-3.20;95.50;;;;;;5036573;28;20022;-73
2021/11/24 06:21:19;;;;;;;64.63;36.47;;;-3.20;95.30;;;;;;5037898;28;20421;-73
2021/11/24 06:23:46;;;;;;;66.53;36.47;;;-3.20;95.80;;;;;;5035292;28;20017;-73
2021/11/24 06:26:11;;;;;;;70.28;38.33;;;-3.20;96.00;;;;;;5037279;28;20022;-73
2021/11/24 06:28:37;;;;;;;63.70;37.45;;;-3.30;96.10;;;;;;5037956;28;20402;-73
2021/11/24 06:31:04;;;;;;;70.25;38.28;;;-3.30;95.80;;;;;;5037116;28;20024;-73
2021/11/24 06:33:29;;;;;;;55.30;33.75;;;-3.30;95.90;;;;;;5036129;28;20085;-72
2021/11/24 06:35:55;;;;;;;69.20;37.63;;;-3.40;95.70;;;;;;5035566;28;20317;-72
2021/11/24 06:38:21;;;;;;;78.57;41.80;;;-3.40;95.70;;;;;;5036016;28;20028;-73
2021/11/24 06:40:48;;;;;;;60.50;33.05;;;-3.50;95.80;;;;;;5037471;28;20022;-73
2021/11/24 06:43:13;;;;;;;68.10;37.45;;;-3.50;95.70;;;;;;5037653;28;20048;-73
2021/11/24 06:45:41;;;;;;;62.63;37.78;;;-3.60;96.00;;;;;;5036272;28;20026;-73
2021/11/24 06:48:07;;;;;;;65.40;36.40;;;-3.60;95.60;;;;;;5037340;28;20039;-73
2021/11/24 06:50:33;;;;;;;75.50;40.65;;;-3.60;95.30;;;;;;5036303;28;20326;-73
2021/11/24 06:52:59;;;;;;;64.70;38.22;;;-3.70;95.20;;;;;;5036598;28;20033;-72
2021/11/24 06:55:25;;;;;;;49.92;32.20;;;-3.70;95.70;;;;;;5035118;28;20025;-72
2021/11/24 06:57:53;;;;;;;65.00;38.08;;;-3.80;95.20;;;;;;5036512;28;20036;-72
2021/11/24 07:00:19;;;;;;;69.53;39.67;;;-3.90;95.80;;;;;;5036833;28;20357;-73
2021/11/24 07:02:45;;;;;;;55.15;31.42;;;-3.90;95.00;;;;;;5036672;28;20120;-73
2021/11/24 07:05:11;;;;;;;84.60;44.70;;;-3.90;94.90;;;;;;5035994;28;20059;-72
2021/11/24 07:07:37;;;;;;;70.78;37.08;;;-4.00;95.10;;;;;;5035189;28;20055;-71
2021/11/24 07:10:06;;;;;;;61.05;34.90;;;-4.00;94.80;;;;;;5035240;28;20469;-73
2021/11/24 07:12:32;;;;;;;87.38;43.65;;;-4.00;94.50;;;;;;5036617;28;20022;-72
2021/11/24 07:14:58;;;;;;;71.13;36.03;;;-3.90;93.80;;;;;;5034776;28;20049;-73
2021/11/24 07:17:25;;;;;;;102.15;52.03;;;-3.80;93.80;;;;;;5036907;28;20091;-73
2021/11/24 07:19:50;;;;;;;105.10;51.20;;;-3.80;93.80;;;;;;5036035;28;20022;-74
2021/11/24 07:22:16;;;;;;;75.95;41.75;;;-3.60;93.10;;;;;;5036712;28;20100;-74
2021/11/24 07:24:44;;;;;;;92.53;45.08;;;-3.50;93.00;;;;;;5034678;28;20056;-73
2021/11/24 07:27:10;;;;;;;93.00;44.75;;;-3.40;92.60;;;;;;5035871;28;20322;-73
2021/11/24 07:29:36;;;;;;;90.57;44.75;;;-3.30;93.10;;;;;;5034028;28;20048;-74
2021/11/24 07:32:02;;;;;;;66.18;34.72;;;-3.20;93.40;;;;;;5035584;28;20025;-73
2021/11/24 07:34:29;;;;;;;70.38;38.90;;;-3.20;93.40;;;;;;5034785;28;20032;-73
2021/11/24 07:36:56;;;;;;;79.00;40.90;;;-3.20;93.30;;;;;;5034768;28;20022;-73
2021/11/24 07:39:22;;;;;;;59.00;35.15;;;-3.10;93.20;;;;;;5033889;28;20053;-73
2021/11/24 07:41:47;;;;;;;76.78;40.60;;;-3.10;93.10;;;;;;5036484;28;20053;-73
2021/11/24 07:44:13;;;;;;;55.58;31.08;;;-3.10;93.30;;;;;;5035520;28;20029;-74
2021/11/24 07:46:39;;;;;;;70.45;40.45;;;-2.90;92.50;;;;;;5035570;28;20025;-73
2021/11/24 07:49:04;;;;;;;89.07;48.33;;;-2.80;93.80;;;;;;5035936;28;20029;-73
2021/11/24 07:51:30;;;;;;;61.33;38.70;;;-2.80;94.00;;;;;;5036149;28;20033;-73
2021/11/24 07:53:56;;;;;;;69.72;42.88;;;-2.70;93.50;;;;;;5034738;28;20030;-73
2021/11/24 07:56:23;;;;;;;75.32;45.78;;;-2.60;93.80;;;;;;5035620;28;20018;-73
2021/11/24 07:58:48;;;;;;;88.93;52.40;;;-2.40;93.20;;;;;;5035582;28;20385;-73
2021/11/24 08:01:14;;;;;;;115.72;66.15;;;-2.30;94.20;;;;;;5036228;28;20022;-72
2021/11/24 08:03:40;;;;;;;82.97;49.33;;;-2.20;94.80;;;;;;5035430;28;20112;-73
2021/11/24 08:06:06;;;;;;;87.00;50.03;;;-2.20;95.60;;;;;;5034701;28;20057;-73
2021/11/24 08:08:32;;;;;;;85.90;46.38;;;-2.10;95.60;;;;;;5034213;28;20025;-73
2021/11/24 08:10:59;;;;;;;77.30;46.63;;;-2.00;95.70;;;;;;5035557;28;20048;-73
2021/11/24 08:13:25;;;;;;;84.68;48.95;;;-1.90;96.10;;;;;;5033964;28;20414;-73
2021/11/24 08:15:50;;;;;;;110.13;58.35;;;-1.70;95.40;;;;;;5035156;28;20032;-73
2021/11/24 08:18:16;;;;;;;73.97;44.53;;;-1.60;97.20;;;;;;5035903;28;20017;-74
2021/11/24 08:20:42;;;;;;;74.97;42.63;;;-1.70;98.00;;;;;;5035575;28;20306;-73
2021/11/24 08:23:08;;;;;;;88.65;49.53;;;-1.70;97.80;;;;;;5030416;28;20030;-73
2021/11/24 08:25:35;;;;;;;70.72;44.42;;;-1.50;97.90;;;;;;5016194;28;20026;-74
2021/11/24 08:28:01;;;;;;;72.13;44.80;;;-1.50;97.90;;;;;;5022337;28;20095;-73
2021/11/24 08:30:27;;;;;;;80.55;48.88;;;-1.30;96.90;;;;;;5034543;28;20037;-73
2021/11/24 08:32:53;;;;;;;67.38;44.22;;;-1.00;97.50;;;;;;5032475;28;20036;-74
2021/11/24 08:35:20;;;;;;;68.50;40.85;;;-0.90;98.00;;;;;;5033902;28;20029;-74
2021/11/24 08:37:46;;;;;;;59.03;38.10;;;-0.80;98.00;;;;;;5035812;28;20059;-73
2021/11/24 08:40:12;;;;;;;59.03;36.45;;;-0.80;98.00;;;;;;5028441;28;20109;-73
2021/11/24 08:42:41;;;;;;;56.47;36.20;;;-0.80;98.00;;;;;;5034181;28;20025;-73
2021/11/24 08:45:10;;;;;;;53.78;32.88;;;-0.80;98.00;;;;;;5034247;28;20029;-73
2021/11/24 08:47:37;;;;;;;58.00;34.03;;;-0.60;98.00;;;;;;5034650;28;20361;-73
2021/11/24 08:50:06;;;;;;;60.53;36.65;;;-0.80;98.00;;;;;;5035594;28;20098;-74
2021/11/24 08:52:32;;;;;;;60.38;37.70;;;-0.80;98.00;;;;;;5035066;28;20025;-73
2021/11/24 08:54:58;;;;;;;64.15;36.90;;;-0.60;98.00;;;;;;5032702;28;20057;-73
2021/11/24 08:57:23;;;;;;;60.10;36.05;;;-0.50;98.00;;;;;;5028018;28;20419;-74
2021/11/24 08:59:50;;;;;;;60.33;36.50;;;-0.40;98.00;;;;;;5034789;28;20033;-73
2021/11/24 09:02:15;;;;;;;74.82;44.60;;;-0.10;98.00;;;;;;5035500;28;20036;-73
2021/11/24 09:04:41;;;;;;;52.50;32.30;;;-0.20;98.00;;;;;;5035089;28;20034;-74
2021/11/24 09:07:07;;;;;;;67.40;39.30;;;-0.70;98.00;;;;;;5053566;28;20418;-74
2021/11/24 09:09:35;;;;;;;58.58;37.58;;;-0.80;98.00;;;;;;5053683;28;20334;-73
2021/11/24 09:12:01;;;;;;;66.57;38.03;;;-0.80;98.00;;;;;;5047508;28;20021;-73
2021/11/24 09:14:26;;;;;;;57.08;36.22;;;-0.70;98.00;;;;;;5034180;28;20036;-73
2021/11/24 09:16:54;;;;;;;51.25;32.78;;;-0.50;98.00;;;;;;5035011;28;20026;-74
2021/11/24 09:19:19;;;;;;;50.92;32.42;;;-0.30;98.00;;;;;;5034475;28;20057;-74
2021/11/24 09:21:45;;;;;;;61.13;36.47;;;0.10;98.00;;;;;;5033964;28;20061;-73
2021/11/24 09:24:14;;;;;;;47.90;30.50;;;0.50;98.00;;;;;;5033101;28;20100;-74
2021/11/24 09:29:06;;;;;;;29.48;18.23;;;2.00;98.00;;;;;;5035284;28;20032;-74
2021/11/24 09:31:32;;;;;;;34.25;17.23;;;2.90;98.00;;;;;;5029092;28;20038;-73
2021/11/24 09:33:59;;;;;;;26.98;17.27;;;3.40;98.00;;;;;;5020881;28;20021;-74
2021/11/24 09:36:25;;;;;;;24.20;15.50;;;3.80;98.00;;;;;;5034319;28;20025;-73
2021/11/24 09:38:51;;;;;;;28.50;17.08;;;4.80;96.30;;;;;;5033266;28;20079;-73
2021/11/24 09:41:21;;;;;;;22.73;14.40;;;5.40;93.20;;;;;;5035090;28;20017;-74
2021/11/24 09:43:51;;;;;;;23.02;15.10;;;5.90;91.00;;;;;;5038534;28;20025;-73
2021/11/24 09:46:18;;;;;;;25.83;15.05;;;6.80;90.10;;;;;;5037353;28;20021;-73
2021/11/24 09:48:45;;;;;;;20.63;13.13;;;6.70;84.80;;;;;;5038256;28;20031;-74
2021/11/24 09:51:12;;;;;;;21.02;13.85;;;6.60;86.30;;;;;;5028119;28;20024;-74
2021/11/24 09:53:40;;;;;;;20.70;13.45;;;7.00;84.60;;;;;;5024599;28;20025;-74
2021/11/24 09:56:06;;;;;;;19.35;12.45;;;7.70;84.20;;;;;;5036994;28;20057;-73
2021/11/24 09:58:32;;;;;;;20.40;13.10;;;7.70;81.10;;;;;;5037079;28;20091;-73
2021/11/24 10:00:59;;;;;;;25.17;14.38;;;7.80;79.30;;;;;;5037275;28;20018;-73
2021/11/24 10:03:28;;;;;;;22.83;14.02;;;7.10;78.80;;;;;;5037299;28;20032;-72
2021/11/24 10:05:54;;;;;;;23.30;14.73;;;7.20;81.60;;;;;;5036919;28;20025;-73
2021/11/24 10:08:20;;;;;;;22.15;13.68;;;7.30;80.60;;;;;;5036784;28;20087;-74
2021/11/24 10:10:46;;;;;;;22.52;14.07;;;7.70;78.70;;;;;;5036723;28;20049;-74
2021/11/24 10:13:13;;;;;;;21.40;13.27;;;7.90;78.50;;;;;;5037838;28;20029;-74
2021/11/24 10:15:44;;;;;;;21.88;13.77;;;8.10;78.10;;;;;;5037909;28;20087;-74
2021/11/24 10:18:22;;;;;;;20.75;13.00;;;7.80;77.50;;;;;;5037201;28;20021;-74
2021/11/24 10:20:57;;;;;;;22.40;13.73;;;7.30;79.30;;;;;;5037477;28;20121;-74
2021/11/24 10:23:27;;;;;;;22.45;13.38;;;6.90;79.70;;;;;;5035182;28;20039;-74
2021/11/24 10:25:53;;;;;;;21.48;13.93;;;6.80;81.00;;;;;;5023253;28;20034;-74
2021/11/24 10:28:32;;;;;;;20.67;13.40;;;7.30;79.10;;;;;;5035773;28;20033;-74
2021/11/24 10:30:59;;;;;;;23.65;14.93;;;7.00;79.80;;;;;;5037130;28;20040;-73
2021/11/24 10:33:30;;;;;;;25.60;15.40;;;5.60;82.30;;;;;;5036586;28;20112;-73
2021/11/24 10:36:03;;;;;;;22.77;14.30;;;5.00;84.90;;;;;;5033706;28;20029;-73
2021/11/24 10:38:38;;;;;;;22.83;14.30;;;5.40;85.30;;;;;;5035153;28;20033;-74
2021/11/24 10:41:04;;;;;;;22.83;14.35;;;5.80;83.90;;;;;;5037406;28;20272;-74
2021/11/24 10:43:43;;;;;;;20.60;13.32;;;6.40;82.60;;;;;;5037136;28;20087;-74
2021/11/24 10:46:11;;;;;;;21.80;13.55;;;6.70;81.30;;;;;;5036934;28;20450;-73
2021/11/24 10:48:37;;;;;;;21.98;13.25;;;6.70;80.00;;;;;;5035336;28;20120;-73
2021/11/24 10:51:52;;;;;;;19.33;12.75;;;6.50;81.60;;;;;;5036311;28;20427;-73
2021/11/24 10:54:19;;;;;;;25.85;14.25;;;7.10;80.80;;;;;;5029915;28;20053;-73
2021/11/24 10:57:08;;;;;;;23.55;13.57;;;7.30;79.50;;;;;;5036183;28;20034;-73
2021/11/24 10:59:39;;;;;;;23.17;13.38;;;7.00;79.10;;;;;;5037306;28;20021;-73
2021/11/24 11:02:21;;;;;;;20.85;12.77;;;6.80;79.10;;;;;;5037257;28;20087;-73
2021/11/24 11:05:19;;;;;;;21.30;12.18;;;6.30;80.30;;;;;;5036660;28;20044;-73
2021/11/24 11:07:52;;;;;;;20.85;13.38;;;6.30;79.40;;;;;;5032858;28;20056;-73
2021/11/24 11:10:26;;;;;;;21.63;12.63;;;6.50;79.80;;;;;;5035017;28;20049;-73
2021/11/24 11:13:01;;;;;;;23.50;13.70;;;6.90;79.00;;;;;;5036846;28;20311;-73
2021/11/24 11:15:31;;;;;;;23.35;14.20;;;6.80;78.80;;;;;;5035899;28;20039;-73
2021/11/24 11:18:08;;;;;;;21.95;13.98;;;6.90;79.60;;;;;;5023006;28;20026;-74
2021/11/24 11:20:41;;;;;;;19.67;11.82;;;7.40;77.90;;;;;;5017130;28;20028;-73
2021/11/24 11:23:12;;;;;;;20.90;12.77;;;7.30;77.30;;;;;;5026266;28;20030;-73
2021/11/24 11:25:43;;;;;;;22.00;13.38;;;7.40;77.50;;;;;;5036441;28;20280;-73
2021/11/24 11:28:10;;;;;;;22.45;13.55;;;7.70;75.80;;;;;;5035503;28;20033;-73
2021/11/24 11:30:38;;;;;;;20.88;13.02;;;7.60;76.60;;;;;;5036673;28;20072;-73
2021/11/24 11:33:04;;;;;;;20.88;12.07;;;7.30;77.00;;;;;;5036286;28;20025;-73
2021/11/24 11:35:30;;;;;;;21.23;13.35;;;7.80;77.20;;;;;;5035394;28;20017;-72
2021/11/24 11:37:57;;;;;;;24.67;12.43;;;7.90;75.30;;;;;;5035301;28;20460;-73
2021/11/24 11:40:24;;;;;;;18.67;12.00;;;8.00;76.20;;;;;;5035150;28;20034;-73
2021/11/24 11:42:50;;;;;;;20.05;12.88;;;8.20;76.20;;;;;;5035918;28;20104;-73
2021/11/24 11:45:17;;;;;;;19.77;12.65;;;7.40;76.50;;;;;;5036434;28;20025;-73
2021/11/24 11:47:52;;;;;;;20.10;12.20;;;7.50;77.10;;;;;;5036381;28;20434;-73
2021/11/24 11:50:38;;;;;;;18.45;11.57;;;7.70;76.90;;;;;;5023541;28;20423;-73
2021/11/24 11:53:20;;;;;;;21.38;12.90;;;8.00;77.20;;;;;;5020047;28;20034;-73
2021/11/24 11:56:10;;;;;;;21.05;12.60;;;8.10;75.60;;;;;;5035825;28;20094;-73
2021/11/24 11:59:01;;;;;;;21.92;13.43;;;7.40;75.70;;;;;;5035649;28;20022;-73
2021/11/24 12:01:36;;;;;;;23.63;14.13;;;7.10;78.00;;;;;;5050284;28;20037;-73
2021/11/24 12:04:07;;;;;;;20.60;12.98;;;6.90;77.40;;;;;;5034602;28;20060;-73
2021/11/24 12:06:38;;;;;;;24.67;14.25;;;6.50;79.50;;;;;;5034055;28;20025;-73
2021/11/24 12:09:25;;;;;;;23.08;13.10;;;6.30;78.50;;;;;;5032441;28;20038;-73
2021/11/24 12:12:07;;;;;;;20.17;11.85;;;6.00;79.50;;;;;;5033878;28;20029;-73
2021/11/24 12:14:57;;;;;;;21.95;13.13;;;6.00;80.20;;;;;;5038786;28;20021;-73
2021/11/24 12:17:29;;;;;;;20.20;12.35;;;6.10;79.40;;;;;;5037227;28;20029;-73
2021/11/24 12:19:55;;;;;;;22.17;13.30;;;6.50;79.40;;;;;;5030246;28;20087;-73
2021/11/24 12:22:56;;;;;;;21.13;13.27;;;6.90;79.00;;;;;;5035711;28;20088;-73
2021/11/24 12:27:53;;;;;;;19.33;12.20;;;6.90;78.10;;;;;;5032596;28;20111;-73
2021/11/24 12:30:42;;;;;;;25.35;13.55;;;6.90;77.70;;;;;;5027689;28;20217;-70
2021/11/24 12:33:28;;;;;;;19.25;12.25;;;7.10;78.60;;;;;;5030255;28;20040;-70
2021/11/24 12:35:59;;;;;;;22.35;13.63;;;7.20;78.00;;;;;;5033892;28;20112;-70
2021/11/24 12:38:26;;;;;;;22.02;13.68;;;7.00;78.70;;;;;;5033336;28;20080;-71